AirNav   Bose ProFlight Aviation Headset
 
 344 users online  

Y65 Calvin Campbell Municipal Airport
Indian River, Michigan, USA

GOING TO INDIAN RIVER?


FAA INFORMATION EFFECTIVE 16 AUGUST 2018

Location

FAA Identifier: Y65
Lat/Long: 45-24-30.0420N / 084-36-00.1280W
45-24.500700N / 084-36.002133W
45.4083450 / -84.6000356
(estimated)
Elevation: 602 ft. / 183 m (estimated)
Variation: 06W (1985)
From city: 1 mile E of INDIAN RIVER, MI
Time zone: UTC -4 (UTC -5 during Standard Time)
Zip code: 49749

Airport Operations

Airport use: Open to the public
Activation date: 04/1940
Control tower: no
ARTCC: MINNEAPOLIS CENTER
FSS: LANSING FLIGHT SERVICE STATION
NOTAMs facility: LAN (NOTAM-D service available)
Attendance: IREG
Wind indicator: lighted
Segmented circle: yes
Lights: ACTVT LIRL RY 10/28 - CTAF.

Airport Communications

CTAF: 122.9
WX ASOS at PLN (13 nm NW): 119.025 (231-539-7700)
WX AWOS-3 at MGN (13 nm W): 119.925 (231-347-5231)
WX AWOS-3 at SLH (15 nm N): 118.175 (231-627-4671)

Nearby radio navigation aids

VOR radial/distance  VOR name  Freq  Var
PLNr175/13.6PELLSTON VORTAC111.8006W
GLRr017/24.2GAYLORD VOR/DME109.2006W

 
NDB name  Hdg/Dist  Freq  Var  ID
CHARLEVOIX082/29.039205WCVX -.-. ...- -..-

Airport Services

Parking: tiedowns

Runway Information

Runway 10/28

Dimensions: 3006 x 50 ft. / 916 x 15 m
Surface: asphalt, in good condition
Runway edge lights: low intensity
RUNWAY 10  RUNWAY 28
Latitude: 45-24.533333N45-24.466500N
Longitude: 084-36.347833W084-35.652167W
Elevation: 602.0 ft.602.0 ft.
Traffic pattern: leftleft
Displaced threshold: no600 ft.
Markings: basic, in fair conditionbasic, in fair condition
Runway end identifier lights: nono
Obstructions: 90 ft. trees, 1731 ft. from runway, 17:1 slope to clear
APCH RATIO 20:1 TO RWY END. BASED ON STRAIGHT OUT.
75 ft. trees, 201 ft. from runway, 130 ft. both sides of centerline, 1:1 slope to clear
+50-75 FT TREES AT THLD 130 FT RIGHT & LEFT OF CNTRLN.

Airport Ownership and Management from official FAA records

Ownership: Publicly-owned
Owner: TUSOARORA TOWNSHIP
PO BOX 208
INDIAN RIVER, MI 49749-0208
Phone 231-238-7088
Manager: CHRISTIAN KINDSVATTER
460 DEERFIELD RD
INDIAN RIVER, MI 49749-9971
Phone (517) 202-9926

Airport Operational Statistics

Aircraft based on the field: 14
Single engine airplanes: 12
Ultralights: 2
    
Aircraft operations: avg 69/week *
50% transient general aviation
50% local general aviation
* for 12-month period ending 31 December 2017

Additional Remarks

DEER & BIRDS ON & INVOF OF ARPT.
SNOW REMOVAL INTERMITTENT, CALL 517-202-9926 TO VERIFY COND.

Instrument Procedures

There are no published instrument procedures at Y65.

Some nearby airports with instrument procedures:

KPLN - Pellston Regional Airport of Emmet County (13 nm NW)
KMGN - Harbor Springs Airport (13 nm W)
KSLH - Cheboygan County Airport (15 nm N)
KBFA - Boyne Mountain Airport (20 nm SW)
N98 - Boyne City Municipal Airport (20 nm SW)
 
Loc | Ops | Rwys | IFR | FBO | Links
Com | Nav | Svcs | Stats | Notes


 
Area around Y65 (Calvin Campbell Municipal Airport)
 
Road maps at: MapQuest Bing Google
 
Aerial photo
WARNING: Photo may not be current or correct
Aerial photo of Y65 (Calvin Campbell Municipal Airport)
Photo taken 17-Oct-2010
looking east.

Do you have a better or more recent aerial photo of Calvin Campbell Municipal Airport that you would like to share? If so, please send us your photo.

 
Sectional chart

 
Airport distance calculator
Flying to Calvin Campbell Municipal Airport? Find the distance to fly.

From to Y65

Sunrise and sunset
Times for 20-Aug-2018
 Local
(UTC-4)
 Zulu
(UTC)
Morning civil twilight06:1510:15
Sunrise06:4610:46
Sunset20:3700:37
Evening civil twilight21:0901:09

Current date and time
Zulu (UTC)  20-Aug-2018 08:06:23
Local (UTC-4)  20-Aug-2018 04:06:23
 
METAR
KPLN 
13nm NW 
200754Z AUTO 00000KT 10SM CLR 16/16 A3001 RMK AO2 SLP159 T01610156
KMGN 
13nm W 
200755Z AUTO 00000KT 10SM CLR 19/18 A3000 RMK AO2 T01960190
KSLH 
15nm N 
200755Z AUTO 14003KT 10SM CLR 18/17 A3000 RMK AO2 T01850177
KGLR 
24nm S 
200753Z AUTO 16005KT 5SM BR CLR 18/18 A3003 RMK AO2 SLP163 T01830178
TAF
KPLN 
13nm NW 
200520Z 2006/2106 00000KT P6SM SCT050 TEMPO 2007/2011 4SM BR BKN250 FM201400 14005KT P6SM BKN050 FM202200 10006KT P6SM BKN060
NOTAMs
Click for the latest NOTAMs
NOTAMs are issued by the DoD/FAA and will open in a separate window not controlled by AirNav.

 

 
 

Would you like to see your business listed on this page?

 If your business provides an interesting product or service to pilots, flight crews, aircraft, or users of the Calvin Campbell Municipal Airport, you should consider listing it here.  To start the listing process, click on the button below
 
Add a business
 

Other Pages about Calvin Campbell Municipal Airport

Page from the Michigan Airport Directory (PDF)
 
Update a link
 
Copyright © AirNav, LLC. All rights reserved. Privacy Policy  Contact